sensor_id;sensor_type;location;lat;lon;timestamp;P1;durP1;ratioP1;P2;durP2;ratioP2
21999;SDS011;11164;48.818;2.322;2023-04-19T00:01:12;15.40;;;10.88;;
21999;SDS011;11164;48.818;2.322;2023-04-19T00:03:38;15.23;;;10.57;;
21999;SDS011;11164;48.818;2.322;2023-04-19T00:06:03;15.18;;;10.57;;
21999;SDS011;11164;48.818;2.322;2023-04-19T00:08:28;16.00;;;10.25;;
21999;SDS011;11164;48.818;2.322;2023-04-19T00:10:53;13.70;;;9.52;;
21999;SDS011;11164;48.818;2.322;2023-04-19T00:13:19;14.35;;;10.35;;
21999;SDS011;11164;48.818;2.322;2023-04-19T00:15:45;14.75;;;10.05;;
21999;SDS011;11164;48.818;2.322;2023-04-19T00:18:11;14.73;;;9.98;;
21999;SDS011;11164;48.818;2.322;2023-04-19T00:20:37;14.52;;;9.90;;
21999;SDS011;11164;48.818;2.322;2023-04-19T00:23:03;16.63;;;10.20;;
21999;SDS011;11164;48.818;2.322;2023-04-19T00:25:28;15.25;;;9.85;;
21999;SDS011;11164;48.818;2.322;2023-04-19T00:27:55;13.45;;;9.38;;
21999;SDS011;11164;48.818;2.322;2023-04-19T00:30:21;15.68;;;10.27;;
21999;SDS011;11164;48.818;2.322;2023-04-19T00:32:46;14.63;;;9.55;;
21999;SDS011;11164;48.818;2.322;2023-04-19T00:35:11;17.75;;;9.82;;
21999;SDS011;11164;48.818;2.322;2023-04-19T00:37:37;14.35;;;10.05;;
21999;SDS011;11164;48.818;2.322;2023-04-19T00:40:02;14.55;;;9.80;;
21999;SDS011;11164;48.818;2.322;2023-04-19T00:42:29;13.98;;;9.18;;
21999;SDS011;11164;48.818;2.322;2023-04-19T00:44:54;15.15;;;8.98;;
21999;SDS011;11164;48.818;2.322;2023-04-19T00:47:19;15.02;;;9.50;;
21999;SDS011;11164;48.818;2.322;2023-04-19T00:49:45;14.38;;;8.80;;
21999;SDS011;11164;48.818;2.322;2023-04-19T00:52:10;12.95;;;9.32;;
21999;SDS011;11164;48.818;2.322;2023-04-19T00:54:36;15.10;;;8.80;;
21999;SDS011;11164;48.818;2.322;2023-04-19T00:57:02;12.05;;;8.73;;
21999;SDS011;11164;48.818;2.322;2023-04-19T00:59:28;12.10;;;8.52;;
21999;SDS011;11164;48.818;2.322;2023-04-19T01:01:54;11.88;;;8.27;;
21999;SDS011;11164;48.818;2.322;2023-04-19T01:04:20;13.00;;;9.23;;
21999;SDS011;11164;48.818;2.322;2023-04-19T01:06:46;14.18;;;8.43;;
21999;SDS011;11164;48.818;2.322;2023-04-19T01:09:12;12.70;;;8.35;;
21999;SDS011;11164;48.818;2.322;2023-04-19T01:11:37;12.25;;;8.80;;
21999;SDS011;11164;48.818;2.322;2023-04-19T01:14:03;14.25;;;8.52;;
21999;SDS011;11164;48.818;2.322;2023-04-19T01:16:28;12.18;;;8.50;;
21999;SDS011;11164;48.818;2.322;2023-04-19T01:18:53;13.68;;;8.27;;
21999;SDS011;11164;48.818;2.322;2023-04-19T01:21:19;13.32;;;8.93;;
21999;SDS011;11164;48.818;2.322;2023-04-19T01:23:46;12.15;;;8.13;;
21999;SDS011;11164;48.818;2.322;2023-04-19T01:26:11;12.55;;;8.57;;
21999;SDS011;11164;48.818;2.322;2023-04-19T01:28:37;12.18;;;8.20;;
21999;SDS011;11164;48.818;2.322;2023-04-19T01:31:02;10.70;;;7.40;;
21999;SDS011;11164;48.818;2.322;2023-04-19T01:33:28;13.13;;;8.63;;
21999;SDS011;11164;48.818;2.322;2023-04-19T01:35:53;12.90;;;8.20;;
21999;SDS011;11164;48.818;2.322;2023-04-19T01:38:18;12.80;;;7.95;;
21999;SDS011;11164;48.818;2.322;2023-04-19T01:40:44;13.13;;;8.43;;
21999;SDS011;11164;48.818;2.322;2023-04-19T01:43:12;14.00;;;8.20;;
21999;SDS011;11164;48.818;2.322;2023-04-19T01:45:38;12.63;;;7.72;;
21999;SDS011;11164;48.818;2.322;2023-04-19T01:48:04;12.60;;;8.15;;
21999;SDS011;11164;48.818;2.322;2023-04-19T01:50:30;11.82;;;7.75;;
21999;SDS011;11164;48.818;2.322;2023-04-19T01:52:56;12.90;;;7.80;;
21999;SDS011;11164;48.818;2.322;2023-04-19T01:55:21;12.10;;;7.90;;
21999;SDS011;11164;48.818;2.322;2023-04-19T01:57:46;12.02;;;8.35;;
21999;SDS011;11164;48.818;2.322;2023-04-19T02:00:12;12.05;;;7.75;;
21999;SDS011;11164;48.818;2.322;2023-04-19T02:02:37;12.52;;;7.95;;
21999;SDS011;11164;48.818;2.322;2023-04-19T02:05:06;11.30;;;7.60;;
21999;SDS011;11164;48.818;2.322;2023-04-19T02:07:32;13.00;;;8.07;;
21999;SDS011;11164;48.818;2.322;2023-04-19T02:09:57;13.10;;;8.40;;
21999;SDS011;11164;48.818;2.322;2023-04-19T02:12:26;11.95;;;7.90;;
21999;SDS011;11164;48.818;2.322;2023-04-19T02:14:58;11.90;;;7.43;;
21999;SDS011;11164;48.818;2.322;2023-04-19T02:17:26;10.75;;;7.72;;
21999;SDS011;11164;48.818;2.322;2023-04-19T02:19:52;10.95;;;7.25;;
21999;SDS011;11164;48.818;2.322;2023-04-19T02:22:17;12.70;;;7.93;;
21999;SDS011;11164;48.818;2.322;2023-04-19T02:24:43;10.85;;;7.70;;
21999;SDS011;11164;48.818;2.322;2023-04-19T02:27:09;10.73;;;7.05;;
21999;SDS011;11164;48.818;2.322;2023-04-19T02:29:35;10.52;;;6.95;;
21999;SDS011;11164;48.818;2.322;2023-04-19T02:32:01;11.57;;;7.88;;
21999;SDS011;11164;48.818;2.322;2023-04-19T02:34:29;12.57;;;7.60;;
21999;SDS011;11164;48.818;2.322;2023-04-19T02:36:55;11.13;;;7.70;;
21999;SDS011;11164;48.818;2.322;2023-04-19T02:39:20;11.32;;;7.75;;
21999;SDS011;11164;48.818;2.322;2023-04-19T02:41:46;11.32;;;7.25;;
21999;SDS011;11164;48.818;2.322;2023-04-19T02:44:11;10.68;;;7.35;;
21999;SDS011;11164;48.818;2.322;2023-04-19T02:46:36;13.27;;;8.45;;
21999;SDS011;11164;48.818;2.322;2023-04-19T02:49:02;11.98;;;7.43;;
21999;SDS011;11164;48.818;2.322;2023-04-19T02:51:27;11.73;;;7.80;;
21999;SDS011;11164;48.818;2.322;2023-04-19T02:53:53;10.45;;;7.57;;
21999;SDS011;11164;48.818;2.322;2023-04-19T02:56:18;12.07;;;7.35;;
21999;SDS011;11164;48.818;2.322;2023-04-19T02:58:44;12.23;;;7.40;;
21999;SDS011;11164;48.818;2.322;2023-04-19T03:01:10;11.00;;;7.28;;
21999;SDS011;11164;48.818;2.322;2023-04-19T03:03:35;11.80;;;7.68;;
21999;SDS011;11164;48.818;2.322;2023-04-19T03:06:01;12.90;;;8.23;;
21999;SDS011;11164;48.818;2.322;2023-04-19T03:08:26;13.32;;;8.50;;
21999;SDS011;11164;48.818;2.322;2023-04-19T03:10:51;13.02;;;8.55;;
21999;SDS011;11164;48.818;2.322;2023-04-19T03:13:17;14.25;;;8.73;;
21999;SDS011;11164;48.818;2.322;2023-04-19T03:15:42;13.00;;;8.15;;
21999;SDS011;11164;48.818;2.322;2023-04-19T03:18:07;11.90;;;7.85;;
21999;SDS011;11164;48.818;2.322;2023-04-19T03:20:33;12.60;;;8.50;;
21999;SDS011;11164;48.818;2.322;2023-04-19T03:22:58;13.93;;;8.80;;
21999;SDS011;11164;48.818;2.322;2023-04-19T03:25:23;13.18;;;8.73;;
21999;SDS011;11164;48.818;2.322;2023-04-19T03:27:49;14.68;;;9.43;;
21999;SDS011;11164;48.818;2.322;2023-04-19T03:30:16;15.55;;;9.32;;
21999;SDS011;11164;48.818;2.322;2023-04-19T03:32:42;13.82;;;8.88;;
21999;SDS011;11164;48.818;2.322;2023-04-19T03:35:07;14.85;;;9.63;;
21999;SDS011;11164;48.818;2.322;2023-04-19T03:37:33;12.50;;;8.90;;
21999;SDS011;11164;48.818;2.322;2023-04-19T03:39:59;12.48;;;8.52;;
21999;SDS011;11164;48.818;2.322;2023-04-19T03:42:24;13.32;;;8.63;;
21999;SDS011;11164;48.818;2.322;2023-04-19T03:44:49;13.30;;;8.80;;
21999;SDS011;11164;48.818;2.322;2023-04-19T03:47:15;12.95;;;8.48;;
21999;SDS011;11164;48.818;2.322;2023-04-19T03:49:40;14.63;;;8.75;;
21999;SDS011;11164;48.818;2.322;2023-04-19T03:52:05;12.38;;;8.27;;
21999;SDS011;11164;48.818;2.322;2023-04-19T03:54:30;14.90;;;8.48;;
21999;SDS011;11164;48.818;2.322;2023-04-19T03:56:56;12.75;;;8.70;;
21999;SDS011;11164;48.818;2.322;2023-04-19T03:59:22;13.10;;;8.10;;
21999;SDS011;11164;48.818;2.322;2023-04-19T04:01:47;14.57;;;9.02;;
21999;SDS011;11164;48.818;2.322;2023-04-19T04:04:13;13.52;;;8.80;;
21999;SDS011;11164;48.818;2.322;2023-04-19T04:06:38;13.52;;;8.75;;
21999;SDS011;11164;48.818;2.322;2023-04-19T04:09:03;14.57;;;9.30;;
21999;SDS011;11164;48.818;2.322;2023-04-19T04:11:29;13.18;;;9.32;;
21999;SDS011;11164;48.818;2.322;2023-04-19T04:13:55;13.32;;;8.77;;
21999;SDS011;11164;48.818;2.322;2023-04-19T04:16:20;14.73;;;9.18;;
21999;SDS011;11164;48.818;2.322;2023-04-19T04:18:46;15.98;;;9.18;;
21999;SDS011;11164;48.818;2.322;2023-04-19T04:21:11;14.80;;;9.02;;
21999;SDS011;11164;48.818;2.322;2023-04-19T04:23:36;15.05;;;9.15;;
21999;SDS011;11164;48.818;2.322;2023-04-19T04:26:02;14.80;;;10.00;;
21999;SDS011;11164;48.818;2.322;2023-04-19T04:28:29;15.35;;;9.98;;
21999;SDS011;11164;48.818;2.322;2023-04-19T04:30:55;14.75;;;9.65;;
21999;SDS011;11164;48.818;2.322;2023-04-19T04:33:25;15.02;;;9.23;;
21999;SDS011;11164;48.818;2.322;2023-04-19T04:35:54;14.85;;;9.57;;
21999;SDS011;11164;48.818;2.322;2023-04-19T04:38:20;13.77;;;8.90;;
21999;SDS011;11164;48.818;2.322;2023-04-19T04:40:52;15.15;;;9.68;;
21999;SDS011;11164;48.818;2.322;2023-04-19T04:43:19;14.32;;;9.02;;
21999;SDS011;11164;48.818;2.322;2023-04-19T04:45:45;14.93;;;10.25;;
21999;SDS011;11164;48.818;2.322;2023-04-19T04:48:11;15.10;;;10.00;;
21999;SDS011;11164;48.818;2.322;2023-04-19T04:50:36;15.82;;;9.45;;
21999;SDS011;11164;48.818;2.322;2023-04-19T04:53:02;14.45;;;9.55;;
21999;SDS011;11164;48.818;2.322;2023-04-19T04:55:27;18.73;;;10.38;;
21999;SDS011;11164;48.818;2.322;2023-04-19T04:57:52;15.25;;;9.65;;
21999;SDS011;11164;48.818;2.322;2023-04-19T05:00:18;16.02;;;10.18;;
21999;SDS011;11164;48.818;2.322;2023-04-19T05:02:43;15.77;;;9.50;;
21999;SDS011;11164;48.818;2.322;2023-04-19T05:05:08;15.18;;;10.25;;
21999;SDS011;11164;48.818;2.322;2023-04-19T05:07:35;16.27;;;9.95;;
21999;SDS011;11164;48.818;2.322;2023-04-19T05:10:00;14.30;;;9.20;;
21999;SDS011;11164;48.818;2.322;2023-04-19T05:12:26;15.57;;;10.02;;
21999;SDS011;11164;48.818;2.322;2023-04-19T05:14:51;15.00;;;9.73;;
21999;SDS011;11164;48.818;2.322;2023-04-19T05:17:17;15.65;;;9.85;;
21999;SDS011;11164;48.818;2.322;2023-04-19T05:19:42;15.23;;;9.95;;
21999;SDS011;11164;48.818;2.322;2023-04-19T05:22:08;14.90;;;9.85;;
21999;SDS011;11164;48.818;2.322;2023-04-19T05:24:33;15.57;;;10.02;;
21999;SDS011;11164;48.818;2.322;2023-04-19T05:26:58;16.05;;;10.18;;
21999;SDS011;11164;48.818;2.322;2023-04-19T05:29:25;14.98;;;9.68;;
21999;SDS011;11164;48.818;2.322;2023-04-19T05:31:51;18.98;;;9.88;;
21999;SDS011;11164;48.818;2.322;2023-04-19T05:34:16;15.02;;;9.95;;
21999;SDS011;11164;48.818;2.322;2023-04-19T05:36:41;13.30;;;8.52;;
21999;SDS011;11164;48.818;2.322;2023-04-19T05:39:07;17.50;;;10.35;;
21999;SDS011;11164;48.818;2.322;2023-04-19T05:41:33;16.92;;;9.95;;
21999;SDS011;11164;48.818;2.322;2023-04-19T05:43:58;16.80;;;10.40;;
21999;SDS011;11164;48.818;2.322;2023-04-19T05:46:24;16.50;;;9.82;;
21999;SDS011;11164;48.818;2.322;2023-04-19T05:48:49;14.90;;;9.65;;
21999;SDS011;11164;48.818;2.322;2023-04-19T05:51:14;15.35;;;10.00;;
21999;SDS011;11164;48.818;2.322;2023-04-19T05:53:42;14.73;;;9.52;;
21999;SDS011;11164;48.818;2.322;2023-04-19T05:56:07;16.23;;;9.85;;
21999;SDS011;11164;48.818;2.322;2023-04-19T05:58:32;15.07;;;10.07;;
21999;SDS011;11164;48.818;2.322;2023-04-19T06:00:58;15.73;;;10.20;;
21999;SDS011;11164;48.818;2.322;2023-04-19T06:03:23;19.33;;;10.38;;
21999;SDS011;11164;48.818;2.322;2023-04-19T06:05:49;18.73;;;11.63;;
21999;SDS011;11164;48.818;2.322;2023-04-19T06:08:14;14.32;;;9.55;;
21999;SDS011;11164;48.818;2.322;2023-04-19T06:10:40;15.35;;;9.85;;
21999;SDS011;11164;48.818;2.322;2023-04-19T06:13:08;15.77;;;9.73;;
21999;SDS011;11164;48.818;2.322;2023-04-19T06:15:33;14.90;;;10.38;;
21999;SDS011;11164;48.818;2.322;2023-04-19T06:17:58;16.27;;;10.10;;
21999;SDS011;11164;48.818;2.322;2023-04-19T06:20:24;15.20;;;9.48;;
21999;SDS011;11164;48.818;2.322;2023-04-19T06:22:49;16.98;;;10.30;;
21999;SDS011;11164;48.818;2.322;2023-04-19T06:25:15;16.52;;;10.15;;
21999;SDS011;11164;48.818;2.322;2023-04-19T06:27:40;15.65;;;10.50;;
21999;SDS011;11164;48.818;2.322;2023-04-19T06:30:05;15.75;;;9.77;;
21999;SDS011;11164;48.818;2.322;2023-04-19T06:32:32;15.55;;;9.48;;
21999;SDS011;11164;48.818;2.322;2023-04-19T06:34:57;15.85;;;9.90;;
21999;SDS011;11164;48.818;2.322;2023-04-19T06:37:23;16.63;;;9.65;;
21999;SDS011;11164;48.818;2.322;2023-04-19T06:39:48;18.00;;;11.50;;
21999;SDS011;11164;48.818;2.322;2023-04-19T06:42:13;18.40;;;10.77;;
21999;SDS011;11164;48.818;2.322;2023-04-19T06:44:38;16.73;;;10.73;;
21999;SDS011;11164;48.818;2.322;2023-04-19T06:47:04;18.63;;;10.82;;
21999;SDS011;11164;48.818;2.322;2023-04-19T06:49:30;18.60;;;11.15;;
21999;SDS011;11164;48.818;2.322;2023-04-19T06:51:55;17.80;;;10.98;;
21999;SDS011;11164;48.818;2.322;2023-04-19T06:54:20;17.40;;;11.18;;
21999;SDS011;11164;48.818;2.322;2023-04-19T06:56:47;16.80;;;10.75;;
21999;SDS011;11164;48.818;2.322;2023-04-19T06:59:14;19.90;;;11.15;;
21999;SDS011;11164;48.818;2.322;2023-04-19T07:01:42;17.15;;;11.63;;
21999;SDS011;11164;48.818;2.322;2023-04-19T07:04:09;17.90;;;10.80;;
21999;SDS011;11164;48.818;2.322;2023-04-19T07:06:35;15.40;;;10.85;;
21999;SDS011;11164;48.818;2.322;2023-04-19T07:09:01;17.08;;;10.43;;
21999;SDS011;11164;48.818;2.322;2023-04-19T07:11:28;16.17;;;11.23;;
21999;SDS011;11164;48.818;2.322;2023-04-19T07:13:53;18.05;;;11.10;;
21999;SDS011;11164;48.818;2.322;2023-04-19T07:16:19;17.25;;;11.27;;
21999;SDS011;11164;48.818;2.322;2023-04-19T07:18:44;17.50;;;11.20;;
21999;SDS011;11164;48.818;2.322;2023-04-19T07:21:09;15.18;;;11.02;;
21999;SDS011;11164;48.818;2.322;2023-04-19T07:23:35;20.33;;;12.15;;
21999;SDS011;11164;48.818;2.322;2023-04-19T07:26:01;16.35;;;10.68;;
21999;SDS011;11164;48.818;2.322;2023-04-19T07:28:29;17.00;;;11.07;;
21999;SDS011;11164;48.818;2.322;2023-04-19T07:30:55;20.00;;;12.05;;
21999;SDS011;11164;48.818;2.322;2023-04-19T07:33:21;16.00;;;11.68;;
21999;SDS011;11164;48.818;2.322;2023-04-19T07:35:47;17.63;;;11.50;;
21999;SDS011;11164;48.818;2.322;2023-04-19T07:38:12;17.13;;;11.20;;
21999;SDS011;11164;48.818;2.322;2023-04-19T07:40:38;16.20;;;11.18;;
21999;SDS011;11164;48.818;2.322;2023-04-19T07:43:03;16.73;;;11.48;;
21999;SDS011;11164;48.818;2.322;2023-04-19T07:45:29;16.40;;;11.43;;
21999;SDS011;11164;48.818;2.322;2023-04-19T07:47:54;17.38;;;11.32;;
21999;SDS011;11164;48.818;2.322;2023-04-19T07:50:20;17.10;;;11.48;;
21999;SDS011;11164;48.818;2.322;2023-04-19T07:52:45;15.38;;;10.85;;
21999;SDS011;11164;48.818;2.322;2023-04-19T07:55:10;16.80;;;11.07;;
21999;SDS011;11164;48.818;2.322;2023-04-19T07:57:36;18.10;;;10.82;;
21999;SDS011;11164;48.818;2.322;2023-04-19T08:00:01;18.50;;;11.50;;
21999;SDS011;11164;48.818;2.322;2023-04-19T08:02:28;16.83;;;11.38;;
21999;SDS011;11164;48.818;2.322;2023-04-19T08:04:54;19.10;;;10.88;;
21999;SDS011;11164;48.818;2.322;2023-04-19T08:07:20;18.70;;;12.05;;
21999;SDS011;11164;48.818;2.322;2023-04-19T08:09:47;19.13;;;11.75;;
21999;SDS011;11164;48.818;2.322;2023-04-19T08:12:13;17.83;;;11.73;;
21999;SDS011;11164;48.818;2.322;2023-04-19T08:14:38;17.70;;;11.52;;
21999;SDS011;11164;48.818;2.322;2023-04-19T08:17:04;17.23;;;10.40;;
21999;SDS011;11164;48.818;2.322;2023-04-19T08:19:30;18.45;;;11.82;;
21999;SDS011;11164;48.818;2.322;2023-04-19T08:21:55;15.40;;;11.18;;
21999;SDS011;11164;48.818;2.322;2023-04-19T08:24:21;22.70;;;11.30;;
21999;SDS011;11164;48.818;2.322;2023-04-19T08:26:46;16.75;;;10.48;;
21999;SDS011;11164;48.818;2.322;2023-04-19T08:29:21;15.98;;;10.30;;
21999;SDS011;11164;48.818;2.322;2023-04-19T08:31:47;19.80;;;11.02;;
21999;SDS011;11164;48.818;2.322;2023-04-19T08:34:12;16.45;;;10.10;;
21999;SDS011;11164;48.818;2.322;2023-04-19T08:36:38;16.55;;;11.13;;
21999;SDS011;11164;48.818;2.322;2023-04-19T08:39:03;18.48;;;10.48;;
21999;SDS011;11164;48.818;2.322;2023-04-19T08:41:31;16.58;;;10.98;;
21999;SDS011;11164;48.818;2.322;2023-04-19T08:43:56;16.27;;;10.68;;
21999;SDS011;11164;48.818;2.322;2023-04-19T08:46:23;16.13;;;10.63;;
21999;SDS011;11164;48.818;2.322;2023-04-19T08:48:50;19.17;;;10.45;;
21999;SDS011;11164;48.818;2.322;2023-04-19T08:51:17;16.48;;;10.20;;
21999;SDS011;11164;48.818;2.322;2023-04-19T08:53:43;13.38;;;9.73;;
21999;SDS011;11164;48.818;2.322;2023-04-19T08:56:09;15.95;;;10.45;;
21999;SDS011;11164;48.818;2.322;2023-04-19T08:58:35;16.05;;;10.55;;
21999;SDS011;11164;48.818;2.322;2023-04-19T09:01:03;15.20;;;9.77;;
21999;SDS011;11164;48.818;2.322;2023-04-19T09:03:29;16.48;;;10.77;;
21999;SDS011;11164;48.818;2.322;2023-04-19T09:05:54;13.52;;;9.50;;
21999;SDS011;11164;48.818;2.322;2023-04-19T09:11:19;15.57;;;10.27;;
21999;SDS011;11164;48.818;2.322;2023-04-19T09:13:37;15.25;;;10.68;;
21999;SDS011;11164;48.818;2.322;2023-04-19T09:16:04;14.88;;;10.07;;
21999;SDS011;11164;48.818;2.322;2023-04-19T09:18:32;15.77;;;10.35;;
21999;SDS011;11164;48.818;2.322;2023-04-19T09:20:57;17.48;;;10.38;;
21999;SDS011;11164;48.818;2.322;2023-04-19T09:23:23;16.73;;;10.73;;
21999;SDS011;11164;48.818;2.322;2023-04-19T09:25:51;17.85;;;10.80;;
21999;SDS011;11164;48.818;2.322;2023-04-19T09:28:26;13.40;;;9.85;;
21999;SDS011;11164;48.818;2.322;2023-04-19T09:30:52;15.02;;;10.57;;
21999;SDS011;11164;48.818;2.322;2023-04-19T09:33:35;14.40;;;10.52;;
21999;SDS011;11164;48.818;2.322;2023-04-19T09:38:44;16.42;;;10.05;;
21999;SDS011;11164;48.818;2.322;2023-04-19T09:41:11;15.40;;;9.52;;
21999;SDS011;11164;48.818;2.322;2023-04-19T09:43:36;13.45;;;9.77;;
21999;SDS011;11164;48.818;2.322;2023-04-19T09:46:01;17.75;;;10.07;;
21999;SDS011;11164;48.818;2.322;2023-04-19T09:48:27;15.50;;;10.75;;
21999;SDS011;11164;48.818;2.322;2023-04-19T09:50:56;14.60;;;9.65;;
21999;SDS011;11164;48.818;2.322;2023-04-19T09:53:24;15.77;;;9.88;;
21999;SDS011;11164;48.818;2.322;2023-04-19T09:55:51;14.25;;;9.52;;
21999;SDS011;11164;48.818;2.322;2023-04-19T09:58:17;13.27;;;9.35;;
21999;SDS011;11164;48.818;2.322;2023-04-19T10:00:43;12.65;;;9.00;;
21999;SDS011;11164;48.818;2.322;2023-04-19T10:03:11;16.00;;;9.13;;
21999;SDS011;11164;48.818;2.322;2023-04-19T10:05:38;15.00;;;9.40;;
21999;SDS011;11164;48.818;2.322;2023-04-19T10:08:08;14.07;;;8.90;;
21999;SDS011;11164;48.818;2.322;2023-04-19T10:10:36;13.40;;;8.88;;
21999;SDS011;11164;48.818;2.322;2023-04-19T10:13:02;12.48;;;8.73;;
21999;SDS011;11164;48.818;2.322;2023-04-19T10:15:29;14.18;;;9.32;;
21999;SDS011;11164;48.818;2.322;2023-04-19T10:17:56;12.48;;;8.98;;
21999;SDS011;11164;48.818;2.322;2023-04-19T10:20:24;11.88;;;8.73;;
21999;SDS011;11164;48.818;2.322;2023-04-19T10:22:54;16.02;;;8.70;;
21999;SDS011;11164;48.818;2.322;2023-04-19T10:25:22;13.38;;;9.40;;
21999;SDS011;11164;48.818;2.322;2023-04-19T10:27:52;11.32;;;7.85;;
21999;SDS011;11164;48.818;2.322;2023-04-19T10:32:44;11.43;;;7.82;;
21999;SDS011;11164;48.818;2.322;2023-04-19T10:35:17;12.95;;;7.90;;
21999;SDS011;11164;48.818;2.322;2023-04-19T10:38:00;11.82;;;7.80;;
21999;SDS011;11164;48.818;2.322;2023-04-19T10:43:35;12.85;;;7.88;;
21999;SDS011;11164;48.818;2.322;2023-04-19T10:46:08;12.23;;;8.50;;
21999;SDS011;11164;48.818;2.322;2023-04-19T10:48:39;12.85;;;8.40;;
21999;SDS011;11164;48.818;2.322;2023-04-19T10:51:17;13.75;;;8.80;;
21999;SDS011;11164;48.818;2.322;2023-04-19T10:53:51;12.15;;;8.80;;
21999;SDS011;11164;48.818;2.322;2023-04-19T10:56:55;14.23;;;8.57;;
21999;SDS011;11164;48.818;2.322;2023-04-19T11:04:10;12.93;;;8.65;;
21999;SDS011;11164;48.818;2.322;2023-04-19T11:06:37;12.55;;;8.32;;
21999;SDS011;11164;48.818;2.322;2023-04-19T11:09:21;11.55;;;8.23;;
21999;SDS011;11164;48.818;2.322;2023-04-19T11:11:48;11.82;;;8.38;;
21999;SDS011;11164;48.818;2.322;2023-04-19T11:14:13;13.50;;;8.70;;
21999;SDS011;11164;48.818;2.322;2023-04-19T11:16:40;12.40;;;7.80;;
21999;SDS011;11164;48.818;2.322;2023-04-19T11:19:06;10.23;;;6.80;;
21999;SDS011;11164;48.818;2.322;2023-04-19T11:21:31;10.18;;;6.85;;
21999;SDS011;11164;48.818;2.322;2023-04-19T11:24:07;10.88;;;7.03;;
21999;SDS011;11164;48.818;2.322;2023-04-19T11:26:33;12.82;;;7.13;;
21999;SDS011;11164;48.818;2.322;2023-04-19T11:28:59;10.15;;;6.80;;
21999;SDS011;11164;48.818;2.322;2023-04-19T11:31:24;10.13;;;6.95;;
21999;SDS011;11164;48.818;2.322;2023-04-19T11:33:50;11.38;;;7.43;;
21999;SDS011;11164;48.818;2.322;2023-04-19T11:36:15;10.60;;;7.35;;
21999;SDS011;11164;48.818;2.322;2023-04-19T11:38:41;10.27;;;7.50;;
21999;SDS011;11164;48.818;2.322;2023-04-19T11:41:11;12.13;;;7.25;;
21999;SDS011;11164;48.818;2.322;2023-04-19T11:43:36;11.63;;;7.07;;
21999;SDS011;11164;48.818;2.322;2023-04-19T11:46:09;10.25;;;6.60;;
21999;SDS011;11164;48.818;2.322;2023-04-19T11:48:37;9.85;;;6.53;;
21999;SDS011;11164;48.818;2.322;2023-04-19T11:51:03;9.05;;;6.35;;
21999;SDS011;11164;48.818;2.322;2023-04-19T11:53:30;11.75;;;6.55;;
21999;SDS011;11164;48.818;2.322;2023-04-19T11:56:02;10.27;;;6.57;;
21999;SDS011;11164;48.818;2.322;2023-04-19T11:58:42;10.02;;;6.95;;
21999;SDS011;11164;48.818;2.322;2023-04-19T12:06:10;10.30;;;6.60;;
21999;SDS011;11164;48.818;2.322;2023-04-19T12:08:37;7.88;;;5.80;;
21999;SDS011;11164;48.818;2.322;2023-04-19T12:11:06;9.35;;;6.25;;
21999;SDS011;11164;48.818;2.322;2023-04-19T12:13:32;8.27;;;5.78;;
21999;SDS011;11164;48.818;2.322;2023-04-19T12:15:58;8.93;;;6.03;;
21999;SDS011;11164;48.818;2.322;2023-04-19T12:18:24;8.55;;;5.50;;
21999;SDS011;11164;48.818;2.322;2023-04-19T12:20:50;8.02;;;5.95;;
21999;SDS011;11164;48.818;2.322;2023-04-19T12:23:17;8.85;;;5.85;;
21999;SDS011;11164;48.818;2.322;2023-04-19T12:25:44;11.95;;;5.22;;
21999;SDS011;11164;48.818;2.322;2023-04-19T12:28:10;9.40;;;5.40;;
21999;SDS011;11164;48.818;2.322;2023-04-19T12:30:37;9.80;;;5.18;;
21999;SDS011;11164;48.818;2.322;2023-04-19T12:33:03;7.22;;;4.78;;
21999;SDS011;11164;48.818;2.322;2023-04-19T12:35:29;10.13;;;5.05;;
21999;SDS011;11164;48.818;2.322;2023-04-19T12:37:55;8.23;;;5.10;;
21999;SDS011;11164;48.818;2.322;2023-04-19T12:40:22;7.07;;;4.90;;
21999;SDS011;11164;48.818;2.322;2023-04-19T12:42:48;7.65;;;5.50;;
21999;SDS011;11164;48.818;2.322;2023-04-19T12:45:13;7.85;;;5.05;;
21999;SDS011;11164;48.818;2.322;2023-04-19T12:47:39;7.32;;;5.07;;
21999;SDS011;11164;48.818;2.322;2023-04-19T12:50:05;7.30;;;5.15;;
21999;SDS011;11164;48.818;2.322;2023-04-19T12:52:32;8.20;;;4.65;;
21999;SDS011;11164;48.818;2.322;2023-04-19T12:54:58;8.75;;;5.28;;
21999;SDS011;11164;48.818;2.322;2023-04-19T12:57:23;7.93;;;5.00;;
21999;SDS011;11164;48.818;2.322;2023-04-19T12:59:49;7.88;;;4.70;;
21999;SDS011;11164;48.818;2.322;2023-04-19T13:02:14;8.25;;;5.05;;
21999;SDS011;11164;48.818;2.322;2023-04-19T13:04:39;7.63;;;4.65;;
21999;SDS011;11164;48.818;2.322;2023-04-19T13:07:05;7.53;;;4.55;;
21999;SDS011;11164;48.818;2.322;2023-04-19T13:09:30;7.75;;;4.10;;
21999;SDS011;11164;48.818;2.322;2023-04-19T13:11:56;8.10;;;4.28;;
21999;SDS011;11164;48.818;2.322;2023-04-19T13:14:22;5.50;;;3.67;;
21999;SDS011;11164;48.818;2.322;2023-04-19T13:16:48;5.40;;;3.55;;
21999;SDS011;11164;48.818;2.322;2023-04-19T13:19:13;5.82;;;3.47;;
21999;SDS011;11164;48.818;2.322;2023-04-19T13:21:40;7.43;;;3.38;;
21999;SDS011;11164;48.818;2.322;2023-04-19T13:24:05;5.05;;;3.47;;
21999;SDS011;11164;48.818;2.322;2023-04-19T13:26:31;7.70;;;3.53;;
21999;SDS011;11164;48.818;2.322;2023-04-19T13:28:58;4.38;;;3.10;;
21999;SDS011;11164;48.818;2.322;2023-04-19T13:31:24;7.38;;;3.60;;
21999;SDS011;11164;48.818;2.322;2023-04-19T13:33:50;4.90;;;3.13;;
21999;SDS011;11164;48.818;2.322;2023-04-19T13:36:16;6.80;;;3.92;;
21999;SDS011;11164;48.818;2.322;2023-04-19T13:38:41;5.80;;;3.75;;
21999;SDS011;11164;48.818;2.322;2023-04-19T13:41:08;8.13;;;3.53;;
21999;SDS011;11164;48.818;2.322;2023-04-19T13:43:34;4.88;;;3.20;;
21999;SDS011;11164;48.818;2.322;2023-04-19T13:45:59;6.35;;;3.13;;
21999;SDS011;11164;48.818;2.322;2023-04-19T13:48:25;6.45;;;3.42;;
21999;SDS011;11164;48.818;2.322;2023-04-19T13:50:52;5.10;;;3.28;;
21999;SDS011;11164;48.818;2.322;2023-04-19T13:53:22;5.00;;;3.17;;
21999;SDS011;11164;48.818;2.322;2023-04-19T13:55:48;5.22;;;3.33;;
21999;SDS011;11164;48.818;2.322;2023-04-19T13:58:13;5.47;;;3.28;;
21999;SDS011;11164;48.818;2.322;2023-04-19T14:00:39;7.50;;;3.45;;
21999;SDS011;11164;48.818;2.322;2023-04-19T14:03:06;6.07;;;3.40;;
21999;SDS011;11164;48.818;2.322;2023-04-19T14:05:31;5.32;;;3.33;;
21999;SDS011;11164;48.818;2.322;2023-04-19T14:07:56;6.45;;;3.30;;
21999;SDS011;11164;48.818;2.322;2023-04-19T14:10:22;8.75;;;3.63;;
21999;SDS011;11164;48.818;2.322;2023-04-19T14:12:48;6.65;;;3.50;;
21999;SDS011;11164;48.818;2.322;2023-04-19T14:15:15;5.50;;;3.20;;
21999;SDS011;11164;48.818;2.322;2023-04-19T14:17:40;9.13;;;3.38;;
21999;SDS011;11164;48.818;2.322;2023-04-19T14:20:05;6.95;;;3.40;;
21999;SDS011;11164;48.818;2.322;2023-04-19T14:22:31;6.63;;;3.15;;
21999;SDS011;11164;48.818;2.322;2023-04-19T14:24:57;5.70;;;3.17;;
21999;SDS011;11164;48.818;2.322;2023-04-19T14:27:22;5.75;;;3.22;;
21999;SDS011;11164;48.818;2.322;2023-04-19T14:29:48;5.43;;;3.13;;
21999;SDS011;11164;48.818;2.322;2023-04-19T14:32:14;6.63;;;2.95;;
21999;SDS011;11164;48.818;2.322;2023-04-19T14:34:40;5.20;;;3.05;;
21999;SDS011;11164;48.818;2.322;2023-04-19T14:37:05;7.05;;;3.30;;
21999;SDS011;11164;48.818;2.322;2023-04-19T14:39:30;4.55;;;2.90;;
21999;SDS011;11164;48.818;2.322;2023-04-19T14:41:56;6.05;;;3.30;;
21999;SDS011;11164;48.818;2.322;2023-04-19T14:44:21;6.68;;;2.90;;
21999;SDS011;11164;48.818;2.322;2023-04-19T14:46:47;6.00;;;2.72;;
21999;SDS011;11164;48.818;2.322;2023-04-19T14:49:12;5.60;;;3.17;;